sensor_id;sensor_type;location;lat;lon;timestamp;P1;durP1;ratioP1;P2;durP2;ratioP2
4001;SDS011;2015;48.670;9.060;2023-07-28T00:01:19;5.90;;;5.30;;
4001;SDS011;2015;48.670;9.060;2023-07-28T00:03:51;5.70;;;5.30;;
4001;SDS011;2015;48.670;9.060;2023-07-28T00:06:23;5.63;;;5.18;;
4001;SDS011;2015;48.670;9.060;2023-07-28T00:08:55;6.17;;;5.77;;
4001;SDS011;2015;48.670;9.060;2023-07-28T00:11:26;5.20;;;4.80;;
4001;SDS011;2015;48.670;9.060;2023-07-28T00:13:58;6.10;;;5.50;;
4001;SDS011;2015;48.670;9.060;2023-07-28T00:16:30;4.80;;;4.50;;
4001;SDS011;2015;48.670;9.060;2023-07-28T00:19:02;4.90;;;4.60;;
4001;SDS011;2015;48.670;9.060;2023-07-28T00:21:35;4.80;;;4.40;;
4001;SDS011;2015;48.670;9.060;2023-07-28T00:24:07;5.93;;;5.20;;
4001;SDS011;2015;48.670;9.060;2023-07-28T00:26:38;5.30;;;4.93;;
4001;SDS011;2015;48.670;9.060;2023-07-28T00:29:10;6.00;;;5.50;;
4001;SDS011;2015;48.670;9.060;2023-07-28T00:31:42;6.17;;;5.67;;
4001;SDS011;2015;48.670;9.060;2023-07-28T00:34:14;5.93;;;4.73;;
4001;SDS011;2015;48.670;9.060;2023-07-28T00:36:45;5.50;;;5.10;;
4001;SDS011;2015;48.670;9.060;2023-07-28T00:39:17;5.50;;;5.10;;
4001;SDS011;2015;48.670;9.060;2023-07-28T00:41:49;5.20;;;4.80;;
4001;SDS011;2015;48.670;9.060;2023-07-28T00:44:21;5.43;;;5.03;;
4001;SDS011;2015;48.670;9.060;2023-07-28T00:46:53;5.00;;;4.70;;
4001;SDS011;2015;48.670;9.060;2023-07-28T00:49:24;5.80;;;5.33;;
4001;SDS011;2015;48.670;9.060;2023-07-28T00:51:56;5.90;;;5.30;;
4001;SDS011;2015;48.670;9.060;2023-07-28T00:54:28;6.27;;;5.87;;
4001;SDS011;2015;48.670;9.060;2023-07-28T00:57:01;6.30;;;5.80;;
4001;SDS011;2015;48.670;9.060;2023-07-28T00:59:34;5.53;;;4.60;;
4001;SDS011;2015;48.670;9.060;2023-07-28T01:02:06;8.00;;;5.73;;
4001;SDS011;2015;48.670;9.060;2023-07-28T01:04:39;5.70;;;5.30;;
4001;SDS011;2015;48.670;9.060;2023-07-28T01:07:16;5.60;;;5.20;;
4001;SDS011;2015;48.670;9.060;2023-07-28T01:09:57;5.80;;;5.30;;
4001;SDS011;2015;48.670;9.060;2023-07-28T01:12:36;5.43;;;5.03;;
4001;SDS011;2015;48.670;9.060;2023-07-28T01:15:08;6.20;;;5.60;;
4001;SDS011;2015;48.670;9.060;2023-07-28T01:17:41;6.67;;;6.07;;
4001;SDS011;2015;48.670;9.060;2023-07-28T01:20:13;5.37;;;4.97;;
4001;SDS011;2015;48.670;9.060;2023-07-28T01:23:04;5.93;;;5.53;;
4001;SDS011;2015;48.670;9.060;2023-07-28T01:28:39;5.37;;;4.97;;
4001;SDS011;2015;48.670;9.060;2023-07-28T01:31:12;8.10;;;5.27;;
4001;SDS011;2015;48.670;9.060;2023-07-28T01:33:44;5.70;;;5.20;;
4001;SDS011;2015;48.670;9.060;2023-07-28T01:36:16;5.57;;;5.17;;
4001;SDS011;2015;48.670;9.060;2023-07-28T01:38:48;6.00;;;4.67;;
4001;SDS011;2015;48.670;9.060;2023-07-28T01:41:20;5.03;;;4.72;;
4001;SDS011;2015;48.670;9.060;2023-07-28T01:43:52;5.50;;;5.20;;
4001;SDS011;2015;48.670;9.060;2023-07-28T01:46:27;5.23;;;4.93;;
4001;SDS011;2015;48.670;9.060;2023-07-28T01:48:58;5.93;;;5.60;;
4001;SDS011;2015;48.670;9.060;2023-07-28T01:51:30;5.03;;;4.60;;
4001;SDS011;2015;48.670;9.060;2023-07-28T01:54:02;6.87;;;4.83;;
4001;SDS011;2015;48.670;9.060;2023-07-28T01:56:34;5.83;;;5.37;;
4001;SDS011;2015;48.670;9.060;2023-07-28T01:59:06;5.33;;;4.90;;
4001;SDS011;2015;48.670;9.060;2023-07-28T02:01:37;7.80;;;6.53;;
4001;SDS011;2015;48.670;9.060;2023-07-28T02:04:10;5.33;;;5.00;;
4001;SDS011;2015;48.670;9.060;2023-07-28T02:06:42;5.50;;;5.00;;
4001;SDS011;2015;48.670;9.060;2023-07-28T02:09:14;6.57;;;6.20;;
4001;SDS011;2015;48.670;9.060;2023-07-28T02:11:46;5.23;;;4.93;;
4001;SDS011;2015;48.670;9.060;2023-07-28T02:14:17;5.17;;;4.83;;
4001;SDS011;2015;48.670;9.060;2023-07-28T02:16:49;5.80;;;4.57;;
4001;SDS011;2015;48.670;9.060;2023-07-28T02:19:21;6.27;;;5.53;;
4001;SDS011;2015;48.670;9.060;2023-07-28T02:21:53;5.27;;;4.70;;
4001;SDS011;2015;48.670;9.060;2023-07-28T02:24:25;5.50;;;5.10;;
4001;SDS011;2015;48.670;9.060;2023-07-28T02:26:56;5.53;;;5.13;;
4001;SDS011;2015;48.670;9.060;2023-07-28T02:29:28;5.20;;;4.80;;
4001;SDS011;2015;48.670;9.060;2023-07-28T02:32:00;5.87;;;5.27;;
4001;SDS011;2015;48.670;9.060;2023-07-28T02:34:31;5.00;;;4.77;;
4001;SDS011;2015;48.670;9.060;2023-07-28T02:37:03;5.10;;;4.70;;
4001;SDS011;2015;48.670;9.060;2023-07-28T02:39:35;5.37;;;4.87;;
4001;SDS011;2015;48.670;9.060;2023-07-28T02:42:07;10.53;;;6.13;;
4001;SDS011;2015;48.670;9.060;2023-07-28T02:44:39;4.97;;;4.30;;
4001;SDS011;2015;48.670;9.060;2023-07-28T02:47:10;4.53;;;4.13;;
4001;SDS011;2015;48.670;9.060;2023-07-28T02:49:42;5.23;;;4.83;;
4001;SDS011;2015;48.670;9.060;2023-07-28T02:52:14;4.57;;;4.27;;
4001;SDS011;2015;48.670;9.060;2023-07-28T02:54:46;5.37;;;4.97;;
4001;SDS011;2015;48.670;9.060;2023-07-28T02:57:18;4.53;;;4.23;;
4001;SDS011;2015;48.670;9.060;2023-07-28T02:59:50;4.90;;;4.57;;
4001;SDS011;2015;48.670;9.060;2023-07-28T03:02:21;5.37;;;4.97;;
4001;SDS011;2015;48.670;9.060;2023-07-28T03:04:53;5.80;;;5.23;;
4001;SDS011;2015;48.670;9.060;2023-07-28T03:07:25;5.20;;;4.70;;
4001;SDS011;2015;48.670;9.060;2023-07-28T03:09:57;4.27;;;4.00;;
4001;SDS011;2015;48.670;9.060;2023-07-28T03:12:29;4.63;;;4.33;;
4001;SDS011;2015;48.670;9.060;2023-07-28T03:15:01;4.90;;;4.57;;
4001;SDS011;2015;48.670;9.060;2023-07-28T03:17:32;4.30;;;4.00;;
4001;SDS011;2015;48.670;9.060;2023-07-28T03:20:04;4.87;;;4.53;;
4001;SDS011;2015;48.670;9.060;2023-07-28T03:22:37;5.17;;;4.73;;
4001;SDS011;2015;48.670;9.060;2023-07-28T03:25:09;4.13;;;3.83;;
4001;SDS011;2015;48.670;9.060;2023-07-28T03:27:40;5.50;;;5.10;;
4001;SDS011;2015;48.670;9.060;2023-07-28T03:30:12;4.93;;;4.63;;
4001;SDS011;2015;48.670;9.060;2023-07-28T03:32:44;4.30;;;3.95;;
4001;SDS011;2015;48.670;9.060;2023-07-28T03:35:16;5.00;;;4.70;;
4001;SDS011;2015;48.670;9.060;2023-07-28T03:37:48;5.13;;;3.93;;
4001;SDS011;2015;48.670;9.060;2023-07-28T03:40:20;5.83;;;4.83;;
4001;SDS011;2015;48.670;9.060;2023-07-28T03:42:52;4.80;;;4.40;;
4001;SDS011;2015;48.670;9.060;2023-07-28T03:45:24;4.57;;;4.17;;
4001;SDS011;2015;48.670;9.060;2023-07-28T03:47:56;4.47;;;4.07;;
4001;SDS011;2015;48.670;9.060;2023-07-28T03:50:27;4.57;;;4.28;;
4001;SDS011;2015;48.670;9.060;2023-07-28T03:52:59;4.50;;;4.20;;
4001;SDS011;2015;48.670;9.060;2023-07-28T03:55:31;4.03;;;3.73;;
4001;SDS011;2015;48.670;9.060;2023-07-28T03:58:02;4.70;;;4.30;;
4001;SDS011;2015;48.670;9.060;2023-07-28T04:00:34;4.30;;;3.90;;
4001;SDS011;2015;48.670;9.060;2023-07-28T04:03:06;4.63;;;4.33;;
4001;SDS011;2015;48.670;9.060;2023-07-28T04:05:37;4.80;;;4.50;;
4001;SDS011;2015;48.670;9.060;2023-07-28T04:08:09;4.50;;;4.30;;
4001;SDS011;2015;48.670;9.060;2023-07-28T04:10:41;4.73;;;4.43;;
4001;SDS011;2015;48.670;9.060;2023-07-28T04:13:12;4.43;;;4.13;;
4001;SDS011;2015;48.670;9.060;2023-07-28T04:15:44;4.17;;;3.90;;
4001;SDS011;2015;48.670;9.060;2023-07-28T04:18:16;4.33;;;4.03;;
4001;SDS011;2015;48.670;9.060;2023-07-28T04:20:49;5.83;;;5.43;;
4001;SDS011;2015;48.670;9.060;2023-07-28T04:23:20;4.50;;;4.10;;
4001;SDS011;2015;48.670;9.060;2023-07-28T04:25:52;5.00;;;4.50;;
4001;SDS011;2015;48.670;9.060;2023-07-28T04:28:24;4.70;;;4.40;;
4001;SDS011;2015;48.670;9.060;2023-07-28T04:30:56;4.93;;;4.53;;
4001;SDS011;2015;48.670;9.060;2023-07-28T04:33:27;5.03;;;4.63;;
4001;SDS011;2015;48.670;9.060;2023-07-28T04:36:01;4.63;;;4.30;;
4001;SDS011;2015;48.670;9.060;2023-07-28T04:38:33;5.00;;;4.70;;
4001;SDS011;2015;48.670;9.060;2023-07-28T04:41:05;5.00;;;4.50;;
4001;SDS011;2015;48.670;9.060;2023-07-28T04:43:37;5.10;;;4.80;;
4001;SDS011;2015;48.670;9.060;2023-07-28T04:46:09;5.33;;;3.57;;
4001;SDS011;2015;48.670;9.060;2023-07-28T04:48:40;4.97;;;4.67;;
4001;SDS011;2015;48.670;9.060;2023-07-28T04:51:12;4.73;;;4.33;;
4001;SDS011;2015;48.670;9.060;2023-07-28T04:53:44;4.83;;;4.33;;
4001;SDS011;2015;48.670;9.060;2023-07-28T04:56:15;4.40;;;4.10;;
4001;SDS011;2015;48.670;9.060;2023-07-28T04:58:47;4.47;;;4.23;;
4001;SDS011;2015;48.670;9.060;2023-07-28T05:01:19;5.90;;;5.40;;
4001;SDS011;2015;48.670;9.060;2023-07-28T05:03:51;5.97;;;5.23;;
4001;SDS011;2015;48.670;9.060;2023-07-28T05:06:22;5.37;;;4.93;;
4001;SDS011;2015;48.670;9.060;2023-07-28T05:08:54;5.70;;;5.20;;
4001;SDS011;2015;48.670;9.060;2023-07-28T05:11:26;6.43;;;5.67;;
4001;SDS011;2015;48.670;9.060;2023-07-28T05:13:57;4.97;;;4.67;;
4001;SDS011;2015;48.670;9.060;2023-07-28T05:16:29;4.90;;;4.60;;
4001;SDS011;2015;48.670;9.060;2023-07-28T05:19:01;5.23;;;4.90;;
4001;SDS011;2015;48.670;9.060;2023-07-28T05:21:34;4.70;;;4.40;;
4001;SDS011;2015;48.670;9.060;2023-07-28T05:24:06;5.50;;;5.20;;
4001;SDS011;2015;48.670;9.060;2023-07-28T05:26:38;5.50;;;5.20;;
4001;SDS011;2015;48.670;9.060;2023-07-28T05:29:09;5.53;;;5.13;;
4001;SDS011;2015;48.670;9.060;2023-07-28T05:31:41;6.13;;;5.63;;
4001;SDS011;2015;48.670;9.060;2023-07-28T05:34:13;5.20;;;4.80;;
4001;SDS011;2015;48.670;9.060;2023-07-28T05:36:45;6.13;;;5.73;;
4001;SDS011;2015;48.670;9.060;2023-07-28T05:39:17;5.70;;;5.20;;
4001;SDS011;2015;48.670;9.060;2023-07-28T05:41:48;6.00;;;5.47;;
4001;SDS011;2015;48.670;9.060;2023-07-28T05:44:20;5.90;;;5.43;;
4001;SDS011;2015;48.670;9.060;2023-07-28T05:46:52;5.70;;;5.30;;
4001;SDS011;2015;48.670;9.060;2023-07-28T05:49:23;6.20;;;5.80;;
4001;SDS011;2015;48.670;9.060;2023-07-28T05:51:55;6.00;;;5.60;;
4001;SDS011;2015;48.670;9.060;2023-07-28T05:54:27;5.03;;;4.73;;
4001;SDS011;2015;48.670;9.060;2023-07-28T05:56:59;6.40;;;5.43;;
4001;SDS011;2015;48.670;9.060;2023-07-28T05:59:31;5.60;;;5.20;;
4001;SDS011;2015;48.670;9.060;2023-07-28T06:02:02;6.40;;;6.00;;
4001;SDS011;2015;48.670;9.060;2023-07-28T06:04:34;6.50;;;5.73;;
4001;SDS011;2015;48.670;9.060;2023-07-28T06:07:06;8.37;;;6.23;;
4001;SDS011;2015;48.670;9.060;2023-07-28T06:09:38;6.53;;;5.80;;
4001;SDS011;2015;48.670;9.060;2023-07-28T06:12:10;6.23;;;5.83;;
4001;SDS011;2015;48.670;9.060;2023-07-28T06:14:41;6.60;;;5.90;;
4001;SDS011;2015;48.670;9.060;2023-07-28T06:17:13;9.60;;;6.57;;
4001;SDS011;2015;48.670;9.060;2023-07-28T06:19:45;6.70;;;5.20;;
4001;SDS011;2015;48.670;9.060;2023-07-28T06:22:16;6.93;;;5.63;;
4001;SDS011;2015;48.670;9.060;2023-07-28T06:24:48;5.80;;;5.30;;
4001;SDS011;2015;48.670;9.060;2023-07-28T06:27:20;7.17;;;6.40;;
4001;SDS011;2015;48.670;9.060;2023-07-28T06:29:52;6.53;;;5.90;;
4001;SDS011;2015;48.670;9.060;2023-07-28T06:32:23;7.03;;;6.43;;
4001;SDS011;2015;48.670;9.060;2023-07-28T06:34:55;7.30;;;6.60;;
4001;SDS011;2015;48.670;9.060;2023-07-28T06:37:28;7.27;;;6.67;;
4001;SDS011;2015;48.670;9.060;2023-07-28T06:40:00;6.40;;;5.90;;
4001;SDS011;2015;48.670;9.060;2023-07-28T06:42:33;8.57;;;6.80;;
4001;SDS011;2015;48.670;9.060;2023-07-28T06:45:05;7.20;;;6.60;;
4001;SDS011;2015;48.670;9.060;2023-07-28T06:47:37;7.03;;;6.30;;
4001;SDS011;2015;48.670;9.060;2023-07-28T06:50:10;7.60;;;6.00;;
4001;SDS011;2015;48.670;9.060;2023-07-28T06:52:42;6.70;;;6.20;;
4001;SDS011;2015;48.670;9.060;2023-07-28T06:55:15;7.97;;;7.37;;
4001;SDS011;2015;48.670;9.060;2023-07-28T06:57:47;6.20;;;5.60;;
4001;SDS011;2015;48.670;9.060;2023-07-28T07:00:20;7.27;;;6.50;;
4001;SDS011;2015;48.670;9.060;2023-07-28T07:02:52;6.80;;;6.10;;
4001;SDS011;2015;48.670;9.060;2023-07-28T07:05:23;6.83;;;6.33;;
4001;SDS011;2015;48.670;9.060;2023-07-28T07:07:56;5.70;;;5.20;;
4001;SDS011;2015;48.670;9.060;2023-07-28T07:10:28;6.30;;;5.80;;
4001;SDS011;2015;48.670;9.060;2023-07-28T07:13:01;6.83;;;4.80;;
4001;SDS011;2015;48.670;9.060;2023-07-28T07:15:34;5.47;;;5.07;;
4001;SDS011;2015;48.670;9.060;2023-07-28T07:18:07;5.73;;;5.30;;
4001;SDS011;2015;48.670;9.060;2023-07-28T07:20:38;4.93;;;4.63;;
4001;SDS011;2015;48.670;9.060;2023-07-28T07:23:10;5.73;;;4.90;;
4001;SDS011;2015;48.670;9.060;2023-07-28T07:25:42;6.83;;;5.30;;
4001;SDS011;2015;48.670;9.060;2023-07-28T07:28:14;6.10;;;5.70;;
4001;SDS011;2015;48.670;9.060;2023-07-28T07:30:46;5.90;;;5.40;;
4001;SDS011;2015;48.670;9.060;2023-07-28T07:33:17;4.90;;;4.50;;
4001;SDS011;2015;48.670;9.060;2023-07-28T07:35:50;5.73;;;5.23;;
4001;SDS011;2015;48.670;9.060;2023-07-28T07:38:21;6.10;;;5.70;;
4001;SDS011;2015;48.670;9.060;2023-07-28T07:40:53;5.67;;;5.27;;
4001;SDS011;2015;48.670;9.060;2023-07-28T07:43:25;5.60;;;5.20;;
4001;SDS011;2015;48.670;9.060;2023-07-28T07:45:56;5.80;;;5.40;;
4001;SDS011;2015;48.670;9.060;2023-07-28T07:48:28;6.17;;;5.60;;
4001;SDS011;2015;48.670;9.060;2023-07-28T07:51:00;5.05;;;4.65;;
4001;SDS011;2015;48.670;9.060;2023-07-28T07:53:32;5.73;;;5.33;;
4001;SDS011;2015;48.670;9.060;2023-07-28T07:56:03;4.90;;;4.60;;
4001;SDS011;2015;48.670;9.060;2023-07-28T07:58:36;6.13;;;4.73;;
4001;SDS011;2015;48.670;9.060;2023-07-28T08:01:08;5.10;;;4.70;;
4001;SDS011;2015;48.670;9.060;2023-07-28T08:03:40;5.13;;;4.73;;
4001;SDS011;2015;48.670;9.060;2023-07-28T08:06:12;5.60;;;5.20;;
4001;SDS011;2015;48.670;9.060;2023-07-28T08:08:43;7.00;;;5.93;;
4001;SDS011;2015;48.670;9.060;2023-07-28T08:11:16;4.07;;;3.77;;
4001;SDS011;2015;48.670;9.060;2023-07-28T08:13:48;3.90;;;3.70;;
4001;SDS011;2015;48.670;9.060;2023-07-28T08:16:19;4.33;;;4.13;;
4001;SDS011;2015;48.670;9.060;2023-07-28T08:18:51;3.80;;;3.60;;
4001;SDS011;2015;48.670;9.060;2023-07-28T08:21:23;4.63;;;3.83;;
4001;SDS011;2015;48.670;9.060;2023-07-28T08:23:55;3.80;;;3.60;;
4001;SDS011;2015;48.670;9.060;2023-07-28T08:26:26;3.63;;;3.43;;
4001;SDS011;2015;48.670;9.060;2023-07-28T08:28:58;5.23;;;4.17;;
4001;SDS011;2015;48.670;9.060;2023-07-28T08:31:30;4.27;;;3.97;;
4001;SDS011;2015;48.670;9.060;2023-07-28T08:34:02;4.13;;;3.83;;
4001;SDS011;2015;48.670;9.060;2023-07-28T08:36:34;4.23;;;3.93;;
4001;SDS011;2015;48.670;9.060;2023-07-28T08:39:05;4.15;;;3.85;;
4001;SDS011;2015;48.670;9.060;2023-07-28T08:41:37;5.00;;;4.27;;
4001;SDS011;2015;48.670;9.060;2023-07-28T08:44:09;3.37;;;3.17;;
4001;SDS011;2015;48.670;9.060;2023-07-28T08:46:41;4.07;;;3.80;;
4001;SDS011;2015;48.670;9.060;2023-07-28T08:49:12;4.23;;;4.03;;
4001;SDS011;2015;48.670;9.060;2023-07-28T08:51:48;3.83;;;3.53;;
4001;SDS011;2015;48.670;9.060;2023-07-28T08:54:21;4.57;;;4.20;;
4001;SDS011;2015;48.670;9.060;2023-07-28T08:56:53;4.00;;;3.80;;
4001;SDS011;2015;48.670;9.060;2023-07-28T08:59:25;4.40;;;4.10;;
4001;SDS011;2015;48.670;9.060;2023-07-28T09:01:58;4.17;;;3.87;;
4001;SDS011;2015;48.670;9.060;2023-07-28T09:04:30;2.90;;;2.70;;
4001;SDS011;2015;48.670;9.060;2023-07-28T09:07:04;4.10;;;3.80;;
4001;SDS011;2015;48.670;9.060;2023-07-28T09:09:36;3.77;;;3.47;;
4001;SDS011;2015;48.670;9.060;2023-07-28T09:12:09;3.30;;;3.00;;
4001;SDS011;2015;48.670;9.060;2023-07-28T09:14:40;4.00;;;3.70;;
4001;SDS011;2015;48.670;9.060;2023-07-28T09:17:13;3.90;;;3.70;;
4001;SDS011;2015;48.670;9.060;2023-07-28T09:19:49;3.70;;;3.40;;
4001;SDS011;2015;48.670;9.060;2023-07-28T09:22:23;3.40;;;3.20;;
4001;SDS011;2015;48.670;9.060;2023-07-28T09:24:54;3.53;;;3.33;;
4001;SDS011;2015;48.670;9.060;2023-07-28T09:27:26;3.47;;;3.17;;
4001;SDS011;2015;48.670;9.060;2023-07-28T09:30:00;3.63;;;3.43;;
4001;SDS011;2015;48.670;9.060;2023-07-28T09:32:32;3.70;;;3.47;;
4001;SDS011;2015;48.670;9.060;2023-07-28T09:35:05;3.07;;;2.87;;
4001;SDS011;2015;48.670;9.060;2023-07-28T09:37:42;4.63;;;2.80;;
4001;SDS011;2015;48.670;9.060;2023-07-28T09:40:19;3.93;;;3.60;;
4001;SDS011;2015;48.670;9.060;2023-07-28T09:42:53;2.60;;;2.50;;
4001;SDS011;2015;48.670;9.060;2023-07-28T09:45:26;2.85;;;2.65;;
4001;SDS011;2015;48.670;9.060;2023-07-28T09:48:09;4.53;;;2.53;;
4001;SDS011;2015;48.670;9.060;2023-07-28T09:50:43;3.30;;;3.10;;
4001;SDS011;2015;48.670;9.060;2023-07-28T09:53:15;2.83;;;2.63;;
4001;SDS011;2015;48.670;9.060;2023-07-28T09:55:48;5.33;;;3.17;;
4001;SDS011;2015;48.670;9.060;2023-07-28T09:58:22;2.30;;;2.20;;
4001;SDS011;2015;48.670;9.060;2023-07-28T10:00:55;3.77;;;2.80;;
4001;SDS011;2015;48.670;9.060;2023-07-28T10:03:28;2.63;;;2.43;;
4001;SDS011;2015;48.670;9.060;2023-07-28T10:06:00;3.07;;;2.87;;
4001;SDS011;2015;48.670;9.060;2023-07-28T10:08:32;3.27;;;2.70;;
4001;SDS011;2015;48.670;9.060;2023-07-28T10:11:04;2.80;;;2.60;;
4001;SDS011;2015;48.670;9.060;2023-07-28T10:13:39;5.10;;;3.17;;
4001;SDS011;2015;48.670;9.060;2023-07-28T10:16:13;2.60;;;2.40;;
4001;SDS011;2015;48.670;9.060;2023-07-28T10:18:53;2.90;;;2.60;;
4001;SDS011;2015;48.670;9.060;2023-07-28T10:21:27;3.00;;;2.70;;
4001;SDS011;2015;48.670;9.060;2023-07-28T10:24:00;3.10;;;2.90;;
4001;SDS011;2015;48.670;9.060;2023-07-28T10:26:35;3.10;;;2.90;;
4001;SDS011;2015;48.670;9.060;2023-07-28T10:29:15;2.90;;;2.70;;
4001;SDS011;2015;48.670;9.060;2023-07-28T10:31:53;3.73;;;3.43;;
4001;SDS011;2015;48.670;9.060;2023-07-28T10:34:29;3.87;;;3.57;;
4001;SDS011;2015;48.670;9.060;2023-07-28T10:37:00;3.63;;;3.43;;
4001;SDS011;2015;48.670;9.060;2023-07-28T10:39:32;2.83;;;2.63;;
4001;SDS011;2015;48.670;9.060;2023-07-28T10:42:09;3.97;;;3.60;;
4001;SDS011;2015;48.670;9.060;2023-07-28T10:44:40;2.90;;;2.70;;
4001;SDS011;2015;48.670;9.060;2023-07-28T10:47:12;3.63;;;3.43;;
4001;SDS011;2015;48.670;9.060;2023-07-28T10:49:46;2.90;;;2.70;;
4001;SDS011;2015;48.670;9.060;2023-07-28T10:52:18;3.47;;;3.27;;
4001;SDS011;2015;48.670;9.060;2023-07-28T10:54:50;4.13;;;3.47;;
4001;SDS011;2015;48.670;9.060;2023-07-28T10:57:22;3.50;;;3.30;;
4001;SDS011;2015;48.670;9.060;2023-07-28T10:59:54;3.33;;;3.03;;
4001;SDS011;2015;48.670;9.060;2023-07-28T11:02:31;3.00;;;2.80;;
4001;SDS011;2015;48.670;9.060;2023-07-28T11:05:09;3.07;;;2.87;;
4001;SDS011;2015;48.670;9.060;2023-07-28T11:07:42;4.57;;;4.30;;
4001;SDS011;2015;48.670;9.060;2023-07-28T11:10:15;3.03;;;2.80;;
4001;SDS011;2015;48.670;9.060;2023-07-28T11:12:48;4.10;;;3.90;;
4001;SDS011;2015;48.670;9.060;2023-07-28T11:15:21;3.03;;;2.83;;
4001;SDS011;2015;48.670;9.060;2023-07-28T11:17:54;3.53;;;3.33;;
4001;SDS011;2015;48.670;9.060;2023-07-28T11:20:27;3.08;;;2.78;;
4001;SDS011;2015;48.670;9.060;2023-07-28T11:23:02;3.47;;;3.27;;
4001;SDS011;2015;48.670;9.060;2023-07-28T11:25:35;3.30;;;3.10;;
4001;SDS011;2015;48.670;9.060;2023-07-28T11:28:08;4.87;;;4.40;;
4001;SDS011;2015;48.670;9.060;2023-07-28T11:30:41;3.23;;;3.03;;
4001;SDS011;2015;48.670;9.060;2023-07-28T11:33:15;3.90;;;3.70;;
4001;SDS011;2015;48.670;9.060;2023-07-28T11:35:46;3.70;;;3.40;;
4001;SDS011;2015;48.670;9.060;2023-07-28T11:38:18;4.67;;;4.37;;
4001;SDS011;2015;48.670;9.060;2023-07-28T11:40:51;3.70;;;3.50;;
4001;SDS011;2015;48.670;9.060;2023-07-28T11:43:23;4.70;;;4.33;;
4001;SDS011;2015;48.670;9.060;2023-07-28T11:45:55;3.90;;;3.50;;
4001;SDS011;2015;48.670;9.060;2023-07-28T11:48:29;5.37;;;4.10;;
4001;SDS011;2015;48.670;9.060;2023-07-28T11:51:02;5.17;;;3.73;;
4001;SDS011;2015;48.670;9.060;2023-07-28T11:53:34;4.50;;;4.20;;
4001;SDS011;2015;48.670;9.060;2023-07-28T11:56:06;4.77;;;4.43;;
4001;SDS011;2015;48.670;9.060;2023-07-28T11:58:38;4.60;;;4.30;;
4001;SDS011;2015;48.670;9.060;2023-07-28T12:01:09;4.57;;;4.27;;
4001;SDS011;2015;48.670;9.060;2023-07-28T12:03:41;4.77;;;4.37;;
4001;SDS011;2015;48.670;9.060;2023-07-28T12:06:13;5.90;;;5.10;;
4001;SDS011;2015;48.670;9.060;2023-07-28T12:09:04;4.43;;;4.03;;
4001;SDS011;2015;48.670;9.060;2023-07-28T12:11:43;6.17;;;5.10;;
4001;SDS011;2015;48.670;9.060;2023-07-28T12:14:29;5.13;;;4.73;;
4001;SDS011;2015;48.670;9.060;2023-07-28T12:17:14;4.60;;;4.30;;
4001;SDS011;2015;48.670;9.060;2023-07-28T12:20:07;4.30;;;4.00;;
4001;SDS011;2015;48.670;9.060;2023-07-28T12:22:47;4.63;;;4.33;;
4001;SDS011;2015;48.670;9.060;2023-07-28T12:25:19;4.20;;;3.90;;
4001;SDS011;2015;48.670;9.060;2023-07-28T12:27:51;5.00;;;4.53;;
4001;SDS011;2015;48.670;9.060;2023-07-28T12:30:23;4.50;;;4.20;;
4001;SDS011;2015;48.670;9.060;2023-07-28T12:32:55;4.40;;;4.10;;
4001;SDS011;2015;48.670;9.060;2023-07-28T12:35:30;5.20;;;4.80;;
4001;SDS011;2015;48.670;9.060;2023-07-28T12:38:07;4.60;;;4.30;;
4001;SDS011;2015;48.670;9.060;2023-07-28T12:40:42;5.40;;;3.75;;
4001;SDS011;2015;48.670;9.060;2023-07-28T12:43:17;3.80;;;3.60;;
4001;SDS011;2015;48.670;9.060;2023-07-28T12:45:51;4.20;;;4.00;;
4001;SDS011;2015;48.670;9.060;2023-07-28T12:48:27;4.63;;;4.40;;
4001;SDS011;2015;48.670;9.060;2023-07-28T12:50:59;4.03;;;3.83;;
4001;SDS011;2015;48.670;9.060;2023-07-28T12:53:34;3.93;;;3.73;;
4001;SDS011;2015;48.670;9.060;2023-07-28T12:56:06;5.50;;;4.93;;
4001;SDS011;2015;48.670;9.060;2023-07-28T12:58:38;4.47;;;4.20;;
4001;SDS011;2015;48.670;9.060;2023-07-28T13:01:13;4.50;;;4.10;;
4001;SDS011;2015;48.670;9.060;2023-07-28T13:03:45;4.43;;;4.13;;
4001;SDS011;2015;48.670;9.060;2023-07-28T13:06:16;4.37;;;4.17;;
4001;SDS011;2015;48.670;9.060;2023-07-28T13:08:48;5.10;;;4.80;;
4001;SDS011;2015;48.670;9.060;2023-07-28T13:11:23;5.07;;;4.70;;
4001;SDS011;2015;48.670;9.060;2023-07-28T13:13:55;4.90;;;4.60;;
4001;SDS011;2015;48.670;9.060;2023-07-28T13:16:27;4.97;;;4.67;;
4001;SDS011;2015;48.670;9.060;2023-07-28T13:18:59;4.73;;;4.40;;
4001;SDS011;2015;48.670;9.060;2023-07-28T13:21:31;5.57;;;5.00;;
4001;SDS011;2015;48.670;9.060;2023-07-28T13:24:04;4.43;;;4.03;;
4001;SDS011;2015;48.670;9.060;2023-07-28T13:26:36;5.53;;;5.03;;
4001;SDS011;2015;48.670;9.060;2023-07-28T13:29:08;5.23;;;4.87;;
4001;SDS011;2015;48.670;9.060;2023-07-28T13:31:39;5.60;;;5.10;;
4001;SDS011;2015;48.670;9.060;2023-07-28T13:34:11;5.10;;;4.80;;
4001;SDS011;2015;48.670;9.060;2023-07-28T13:36:43;5.97;;;5.47;;
4001;SDS011;2015;48.670;9.060;2023-07-28T13:39:15;8.47;;;5.93;;
4001;SDS011;2015;48.670;9.060;2023-07-28T13:41:46;5.33;;;4.90;;
4001;SDS011;2015;48.670;9.060;2023-07-28T13:44:18;5.83;;;5.43;;
4001;SDS011;2015;48.670;9.060;2023-07-28T13:46:50;5.93;;;5.43;;
4001;SDS011;2015;48.670;9.060;2023-07-28T13:49:21;6.97;;;6.27;;
4001;SDS011;2015;48.670;9.060;2023-07-28T13:51:53;6.07;;;5.57;;
4001;SDS011;2015;48.670;9.060;2023-07-28T13:54:28;6.90;;;6.20;;
4001;SDS011;2015;48.670;9.060;2023-07-28T13:57:01;7.43;;;6.73;;
4001;SDS011;2015;48.670;9.060;2023-07-28T13:59:32;7.13;;;6.53;;
4001;SDS011;2015;48.670;9.060;2023-07-28T14:02:04;11.90;;;6.38;;
4001;SDS011;2015;48.670;9.060;2023-07-28T14:04:36;7.30;;;6.63;;
4001;SDS011;2015;48.670;9.060;2023-07-28T14:07:08;8.33;;;7.23;;
4001;SDS011;2015;48.670;9.060;2023-07-28T14:09:40;10.80;;;8.90;;
4001;SDS011;2015;48.670;9.060;2023-07-28T14:12:11;6.90;;;6.30;;
4001;SDS011;2015;48.670;9.060;2023-07-28T14:14:43;8.93;;;6.30;;
4001;SDS011;2015;48.670;9.060;2023-07-28T14:17:15;6.47;;;5.93;;
4001;SDS011;2015;48.670;9.060;2023-07-28T14:19:47;6.50;;;6.00;;
4001;SDS011;2015;48.670;9.060;2023-07-28T14:22:19;6.97;;;6.37;;
4001;SDS011;2015;48.670;9.060;2023-07-28T14:24:50;7.37;;;6.87;;
4001;SDS011;2015;48.670;9.060;2023-07-28T14:27:22;6.43;;;5.93;;
4001;SDS011;2015;48.670;9.060;2023-07-28T14:29:54;7.80;;;7.20;;
4001;SDS011;2015;48.670;9.060;2023-07-28T14:32:26;6.70;;;6.20;;
4001;SDS011;2015;48.670;9.060;2023-07-28T14:34:58;6.75;;;5.35;;
4001;SDS011;2015;48.670;9.060;2023-07-28T14:37:30;6.80;;;6.20;;
4001;SDS011;2015;48.670;9.060;2023-07-28T14:40:01;5.63;;;5.13;;
4001;SDS011;2015;48.670;9.060;2023-07-28T14:42:33;6.80;;;6.20;;
4001;SDS011;2015;48.670;9.060;2023-07-28T14:45:05;6.87;;;6.27;;
4001;SDS011;2015;48.670;9.060;2023-07-28T14:47:37;6.23;;;5.73;;
4001;SDS011;2015;48.670;9.060;2023-07-28T14:50:09;6.03;;;5.53;;
4001;SDS011;2015;48.670;9.060;2023-07-28T14:52:41;6.73;;;5.93;;
4001;SDS011;2015;48.670;9.060;2023-07-28T14:55:13;6.47;;;5.87;;
4001;SDS011;2015;48.670;9.060;2023-07-28T14:57:46;5.90;;;5.40;;
4001;SDS011;2015;48.670;9.060;2023-07-28T15:00:18;5.70;;;5.20;;
4001;SDS011;2015;48.670;9.060;2023-07-28T15:02:50;8.00;;;5.73;;
4001;SDS011;2015;48.670;9.060;2023-07-28T15:05:21;5.70;;;5.30;;
4001;SDS011;2015;48.670;9.060;2023-07-28T15:07:53;5.40;;;4.83;;
4001;SDS011;2015;48.670;9.060;2023-07-28T15:10:25;6.27;;;5.70;;
4001;SDS011;2015;48.670;9.060;2023-07-28T15:12:57;6.87;;;4.43;;
4001;SDS011;2015;48.670;9.060;2023-07-28T15:15:28;6.93;;;6.33;;
4001;SDS011;2015;48.670;9.060;2023-07-28T15:18:00;4.77;;;4.47;;
4001;SDS011;2015;48.670;9.060;2023-07-28T15:20:33;5.43;;;5.03;;
4001;SDS011;2015;48.670;9.060;2023-07-28T15:23:05;5.80;;;5.40;;
4001;SDS011;2015;48.670;9.060;2023-07-28T15:25:37;5.27;;;4.97;;
4001;SDS011;2015;48.670;9.060;2023-07-28T15:28:13;5.43;;;5.13;;
4001;SDS011;2015;48.670;9.060;2023-07-28T15:30:46;5.53;;;5.03;;
4001;SDS011;2015;48.670;9.060;2023-07-28T15:33:20;5.77;;;5.37;;
4001;SDS011;2015;48.670;9.060;2023-07-28T15:35:54;4.67;;;4.37;;
4001;SDS011;2015;48.670;9.060;2023-07-28T15:38:26;5.32;;;4.93;;
4001;SDS011;2015;48.670;9.060;2023-07-28T15:40:58;5.57;;;5.27;;
4001;SDS011;2015;48.670;9.060;2023-07-28T15:43:30;5.43;;;4.93;;
4001;SDS011;2015;48.670;9.060;2023-07-28T15:46:01;4.93;;;4.63;;
4001;SDS011;2015;48.670;9.060;2023-07-28T15:48:35;5.53;;;5.03;;
4001;SDS011;2015;48.670;9.060;2023-07-28T15:51:08;5.73;;;5.43;;